Time;durP1;ratioP1;P1;durP2;ratioP2;P2;SDS_P1;SDS_P2;PMS_P1;PMS_P2;Temp;Humidity;BMP_temperature;BMP_pressure;BME280_temperature;BME280_humidity;BME280_pressure;Samples;Min_cycle;Max_cycle;Signal;HPM_P1;HPM_P2
2023/01/07 00:01:42;;;;;;;7.25;3.78;;;;;;;3.00;100.00;100605.31;6009485;23;20454;-90
2023/01/07 00:04:11;;;;;;;3.30;1.52;;;;;;;2.96;100.00;100609.16;6009887;23;20480;-90
2023/01/07 00:06:38;;;;;;;1.17;1.17;;;;;;;2.98;100.00;100612.34;6010167;23;20453;-89
2023/01/07 00:09:06;;;;;;;2.00;1.90;;;;;;;2.95;100.00;100607.59;6034115;23;20008;-90
2023/01/07 00:11:34;;;;;;;2.90;2.70;;;;;;;2.83;100.00;100597.66;5987990;23;20019;-90
2023/01/07 00:14:00;;;;;;;3.65;2.70;;;;;;;2.80;100.00;100601.13;5986792;23;20072;-90
2023/01/07 00:16:28;;;;;;;0.82;0.63;;;;;;;2.76;100.00;100600.28;6010910;23;20462;-90
2023/01/07 00:18:55;;;;;;;2.38;2.28;;;;;;;2.65;100.00;100580.97;5986892;23;20018;-90
2023/01/07 00:21:22;;;;;;;3.85;2.70;;;;;;;2.53;100.00;100581.19;5987263;23;20051;-89
2023/01/07 00:23:48;;;;;;;2.08;1.55;;;;;;;2.62;100.00;100613.78;6009723;23;20011;-90
2023/01/07 00:26:19;;;;;;;1.52;1.45;;;;;;;2.61;100.00;100617.69;6011646;23;20074;-91
2023/01/07 00:28:47;;;;;;;0.75;0.75;;;;;;;2.59;100.00;100615.31;6010423;23;20343;-90
2023/01/07 00:31:18;;;;;;;0.38;0.38;;;;;;;2.61;100.00;100613.00;6009886;23;20074;-90
2023/01/07 00:34:05;;;;;;;2.00;1.65;;;;;;;2.38;100.00;100595.84;6034233;23;20094;-90
2023/01/07 00:36:40;;;;;;;1.92;1.83;;;;;;;2.49;100.00;100610.47;6016891;23;20011;-93
2023/01/07 00:39:12;;;;;;;4.28;2.33;;;;;;;2.44;100.00;100605.31;5988205;23;20095;-89
2023/01/07 00:41:37;;;;;;;1.52;1.35;;;;;;;2.42;100.00;100607.63;5963853;23;20023;-90
2023/01/07 00:44:04;;;;;;;2.85;2.65;;;;;;;2.37;100.00;100602.47;6034195;23;20023;-91
2023/01/07 00:46:30;;;;;;;2.80;2.60;;;;;;;2.49;100.00;100607.72;5987385;23;20015;-89
2023/01/07 00:48:55;;;;;;;3.58;2.17;;;;;;;2.48;100.00;100611.63;5986840;23;20012;-90
2023/01/07 00:51:21;;;;;;;2.45;2.25;;;;;;;2.40;100.00;100604.47;6010781;23;20020;-90
2023/01/07 00:53:47;;;;;;;3.40;3.13;;;;;;;2.45;100.00;100606.88;5986530;23;20338;-90
2023/01/07 00:56:14;;;;;;;2.28;2.08;;;;;;;2.46;100.00;100613.16;6011443;23;20338;-94
2023/01/07 00:58:39;;;;;;;1.90;1.77;;;;;;;2.49;100.00;100612.41;5988418;23;20026;-90
2023/01/07 01:01:05;;;;;;;1.02;1.00;;;;;;;2.52;100.00;100628.09;6009836;23;20035;-90
2023/01/07 01:03:31;;;;;;;1.65;1.52;;;;;;;2.55;100.00;100630.88;6010058;23;20003;-90
2023/01/07 01:06:11;;;;;;;4.63;4.05;;;;;;;2.55;100.00;100630.13;5987959;23;20016;-90
2023/01/07 01:08:37;;;;;;;2.60;1.75;;;;;;;2.57;100.00;100625.84;5988156;23;20015;-90
2023/01/07 01:11:04;;;;;;;1.05;1.05;;;;;;;2.51;100.00;100619.09;5987533;23;20011;-90
2023/01/07 01:13:30;;;;;;;2.90;2.70;;;;;;;2.55;100.00;100611.72;6010767;23;20086;-89
2023/01/07 01:15:55;;;;;;;2.30;1.45;;;;;;;2.45;100.00;100606.88;5988632;23;20386;-93
2023/01/07 01:18:21;;;;;;;2.42;2.33;;;;;;;2.59;100.00;100620.03;5989633;23;20196;-94
2023/01/07 01:20:47;;;;;;;1.40;1.38;;;;;;;2.62;100.00;100616.53;5991164;23;20086;-93
2023/01/07 01:23:12;;;;;;;1.50;1.25;;;;;;;2.62;100.00;100622.00;5989879;23;20015;-92
2023/01/07 01:25:38;;;;;;;2.95;2.15;;;;;;;2.53;100.00;100624.22;5990715;23;20346;-93
2023/01/07 01:28:03;;;;;;;3.33;1.83;;;;;;;2.44;100.00;100637.38;6013844;23;20012;-95
2023/01/07 01:30:29;;;;;;;1.75;1.65;;;;;;;2.37;100.00;100642.75;5990808;23;20405;-93
2023/01/07 01:32:57;;;;;;;1.27;0.88;;;;;;;2.17;100.00;100625.59;6012589;23;20019;-94
2023/01/07 01:35:24;;;;;;;1.75;1.65;;;;;;;2.17;100.00;100642.03;5989264;23;20014;-94
2023/01/07 01:37:50;;;;;;;3.92;3.58;;;;;;;2.04;100.00;100640.63;6014896;23;20163;-94
2023/01/07 01:40:16;;;;;;;2.53;2.33;;;;;;;1.94;100.00;100638.50;5967426;23;20426;-93
2023/01/07 01:42:41;;;;;;;1.27;1.27;;;;;;;1.77;100.00;100635.09;5990374;23;20043;-93
2023/01/07 01:45:11;;;;;;;0.93;0.93;;;;;;;1.77;100.00;100632.34;5991006;23;20042;-93
2023/01/07 01:47:49;;;;;;;2.83;2.15;;;;;;;1.83;100.00;100639.09;5991063;23;20011;-93
2023/01/07 01:50:26;;;;;;;4.05;3.75;;;;;;;1.79;100.00;100635.50;5967805;23;20018;-94
2023/01/07 01:53:14;;;;;;;2.05;1.55;;;;;;;1.85;100.00;100647.75;5990104;23;20026;-91
2023/01/07 01:55:53;;;;;;;10.77;3.38;;;;;;;1.73;100.00;100645.19;6012692;23;20462;-91
2023/01/07 01:58:23;;;;;;;1.75;1.65;;;;;;;1.75;100.00;100650.25;6012900;23;20103;-91
2023/01/07 02:03:32;;;;;;;3.35;3.13;;;;;;;1.68;100.00;100639.19;6056498;23;20026;-93
2023/01/07 02:05:59;;;;;;;3.20;1.83;;;;;;;1.41;100.00;100624.63;6015033;23;20023;-94
2023/01/07 02:08:25;;;;;;;2.58;2.38;;;;;;;1.58;100.00;100632.38;5997031;23;20032;-92
2023/01/07 02:11:03;;;;;;;4.18;2.03;;;;;;;1.55;100.00;100640.50;5995868;23;20355;-93
2023/01/07 02:13:58;;;;;;;2.20;2.00;;;;;;;1.54;100.00;100638.94;6016660;23;20040;-92
2023/01/07 02:16:43;;;;;;;5.80;3.42;;;;;;;1.44;100.00;100623.91;6017321;23;20079;-92
2023/01/07 02:19:16;;;;;;;1.02;0.95;;;;;;;1.57;100.00;100644.47;5992574;23;20018;-93
2023/01/07 02:22:11;;;;;;;2.00;1.88;;;;;;;1.62;100.00;100638.69;6017714;23;20066;-93
2023/01/07 02:24:52;;;;;;;1.23;1.13;;;;;;;1.65;100.00;100638.00;6012494;23;20451;-93
2023/01/07 02:27:21;;;;;;;2.40;2.22;;;;;;;1.63;100.00;100631.28;6039951;23;20015;-93
2023/01/07 02:30:10;;;;;;;2.00;1.90;;;;;;;1.70;100.00;100629.47;6040891;23;20015;-92
2023/01/07 02:33:01;;;;;;;1.48;1.38;;;;;;;1.71;100.00;100627.53;6040396;23;20347;-92
2023/01/07 02:35:32;;;;;;;2.90;2.70;;;;;;;1.71;100.00;100639.25;6040253;23;20023;-93
2023/01/07 02:38:28;;;;;;;1.23;1.13;;;;;;;1.74;100.00;100622.13;6017127;23;20051;-93
2023/01/07 02:41:11;;;;;;;3.97;2.33;;;;;;;1.61;100.00;100612.53;6040072;23;20015;-92
2023/01/07 02:43:58;;;;;;;6.10;2.27;;;;;;;1.72;100.00;100629.91;6039611;23;20023;-93
2023/01/07 02:46:30;;;;;;;3.13;2.92;;;;;;;1.61;100.00;100617.19;6039732;23;20459;-92
2023/01/07 02:49:00;;;;;;;0.90;0.90;;;;;;;1.72;100.00;100634.59;6039814;23;20006;-93
2023/01/07 02:51:37;;;;;;;2.38;2.17;;;;;;;1.62;100.00;100608.63;5993419;23;20524;-93
2023/01/07 02:54:04;;;;;;;2.58;2.38;;;;;;;1.55;100.00;100608.50;6015874;23;20019;-93
2023/01/07 02:56:50;;;;;;;2.58;2.40;;;;;;;1.56;100.00;100615.56;5993540;23;20014;-92
2023/01/07 02:59:40;;;;;;;1.48;1.33;;;;;;;1.59;100.00;100623.03;6038063;23;20054;-92
2023/01/07 03:02:45;;;;;;;3.05;2.20;;;;;;;1.39;100.00;100599.59;6037292;23;20178;-93
2023/01/07 03:05:42;;;;;;;3.05;2.78;;;;;;;1.49;100.00;100612.69;6019324;23;20090;-93
2023/01/07 03:08:29;;;;;;;4.95;2.13;;;;;;;1.40;100.00;100631.25;6064311;23;20459;-92
2023/01/07 03:11:01;;;;;;;0.17;0.17;;;;;;;1.34;100.00;100597.16;6040164;23;20023;-92
2023/01/07 03:13:46;;;;;;;2.05;1.88;;;;;;;1.28;100.00;100625.94;6039654;23;20043;-92
2023/01/07 03:16:20;;;;;;;4.22;3.92;;;;;;;1.23;100.00;100613.34;6063894;23;20094;-92
2023/01/07 03:18:50;;;;;;;1.98;1.88;;;;;;;1.24;100.00;100619.59;6017149;23;20023;-92
2023/01/07 03:21:17;;;;;;;5.65;3.72;;;;;;;1.23;100.00;100618.00;6039399;23;20019;-92
2023/01/07 03:23:46;;;;;;;1.52;1.42;;;;;;;1.27;100.00;100597.00;6038475;23;20355;-92
2023/01/07 03:26:18;;;;;;;1.85;1.75;;;;;;;1.26;100.00;100606.34;6037814;23;20025;-92
2023/01/07 03:28:44;;;;;;;1.52;1.42;;;;;;;1.24;100.00;100592.28;6016785;23;20018;-93
2023/01/07 03:31:12;;;;;;;3.35;3.10;;;;;;;1.38;100.00;100614.41;6040007;23;20007;-93
2023/01/07 03:34:04;;;;;;;1.15;1.05;;;;;;;1.32;100.00;100610.41;6016670;23;20015;-93
2023/01/07 03:36:35;;;;;;;2.88;2.67;;;;;;;1.35;100.00;100609.66;6052607;23;20023;-93
2023/01/07 03:39:01;;;;;;;2.10;2.00;;;;;;;1.31;100.00;100611.53;6039694;23;20011;-93
2023/01/07 03:44:12;;;;;;;3.85;1.98;;;;;;;1.30;100.00;100618.94;6043369;23;20063;-92
2023/01/07 03:46:38;;;;;;;1.20;1.10;;;;;;;1.28;100.00;100617.75;6016613;23;20018;-93
2023/01/07 03:49:05;;;;;;;1.70;1.58;;;;;;;1.19;100.00;100628.09;6017163;23;20448;-92
2023/01/07 03:51:33;;;;;;;1.65;1.55;;;;;;;0.98;100.00;100622.16;6017523;23;20023;-93
2023/01/07 03:53:59;;;;;;;2.35;2.17;;;;;;;0.97;100.00;100620.59;6040021;23;20343;-92
2023/01/07 03:56:25;;;;;;;1.13;1.13;;;;;;;0.97;100.00;100606.94;6040802;23;20073;-93
2023/01/07 03:58:50;;;;;;;1.95;1.50;;;;;;;0.93;100.00;100613.09;6039391;23;20003;-92
2023/01/07 04:01:16;;;;;;;2.97;2.00;;;;;;;0.78;100.00;100603.03;6038946;23;20011;-92
2023/01/07 04:03:41;;;;;;;2.33;1.45;;;;;;;0.65;100.00;100566.09;6054176;23;20017;-93
2023/01/07 04:06:07;;;;;;;0.82;0.82;;;;;;;0.76;100.00;100586.22;6071963;23;20006;-93
2023/01/07 04:08:35;;;;;;;2.88;1.77;;;;;;;0.87;100.00;100609.09;6056187;23;20062;-93
2023/01/07 04:11:01;;;;;;;1.52;1.42;;;;;;;0.82;100.00;100597.66;6088955;23;20014;-93
2023/01/07 04:13:27;;;;;;;2.30;2.20;;;;;;;0.89;100.00;100603.28;6044353;23;20022;-93
2023/01/07 04:15:53;;;;;;;1.33;1.25;;;;;;;0.90;100.00;100610.31;6091347;23;20014;-92
2023/01/07 04:18:19;;;;;;;1.63;1.52;;;;;;;0.85;100.00;100597.72;6043833;23;20085;-92
2023/01/07 04:20:46;;;;;;;2.80;2.55;;;;;;;0.81;100.00;100593.34;6043102;23;20077;-92
2023/01/07 04:23:12;;;;;;;1.63;1.52;;;;;;;0.91;100.00;100601.78;6068334;23;20013;-93
2023/01/07 04:25:39;;;;;;;1.75;1.55;;;;;;;0.96;100.00;100606.16;6094222;23;20014;-92
2023/01/07 04:28:07;;;;;;;15.18;1.80;;;;;;;0.93;100.00;100604.16;6090790;23;20038;-92
2023/01/07 04:30:33;;;;;;;1.88;1.35;;;;;;;0.91;100.00;100590.84;6092170;23;20036;-93
2023/01/07 04:32:59;;;;;;;3.67;3.28;;;;;;;1.03;100.00;100602.78;6045317;23;20015;-92
2023/01/07 04:35:24;;;;;;;0.60;0.60;;;;;;;1.02;100.00;100593.78;6044174;23;20006;-94
2023/01/07 04:37:50;;;;;;;2.42;2.33;;;;;;;1.07;100.00;100595.44;6044675;23;20015;-93
2023/01/07 04:40:16;;;;;;;3.03;2.83;;;;;;;0.89;100.00;100563.09;6068395;23;20018;-92
2023/01/07 04:42:42;;;;;;;5.30;1.65;;;;;;;0.97;100.00;100565.97;6045328;23;20443;-92
2023/01/07 04:45:08;;;;;;;1.60;1.52;;;;;;;0.89;100.00;100549.41;6068138;23;20003;-92
2023/01/07 04:47:34;;;;;;;2.55;2.35;;;;;;;1.20;100.00;100602.34;6044667;23;20018;-93
2023/01/07 04:50:00;;;;;;;3.40;2.15;;;;;;;1.14;100.00;100584.66;6067886;23;20443;-92
2023/01/07 04:52:29;;;;;;;1.70;1.60;;;;;;;1.20;100.00;100599.63;6047599;23;20010;-92
2023/01/07 04:54:55;;;;;;;4.60;2.75;;;;;;;1.22;100.00;100609.03;6070684;23;20014;-92
2023/01/07 04:57:20;;;;;;;1.75;1.55;;;;;;;1.12;100.00;100606.09;6094003;23;20014;-92
2023/01/07 04:59:46;;;;;;;3.28;3.08;;;;;;;1.05;100.00;100609.47;6094213;23;20456;-93
2023/01/07 05:02:11;;;;;;;2.13;2.03;;;;;;;0.69;100.00;100571.66;6045455;23;20014;-93
2023/01/07 05:04:38;;;;;;;1.65;1.55;;;;;;;0.94;100.00;100605.72;6045643;23;20017;-93
2023/01/07 05:07:04;;;;;;;1.98;1.85;;;;;;;0.97;100.00;100596.03;6071041;23;20014;-92
2023/01/07 05:09:30;;;;;;;1.23;1.13;;;;;;;0.87;100.00;100587.25;6070492;23;20014;-92
2023/01/07 05:11:56;;;;;;;3.13;2.67;;;;;;;0.80;100.00;100570.72;6070906;23;20010;-93
2023/01/07 05:14:21;;;;;;;3.60;1.88;;;;;;;0.97;100.00;100610.47;6045368;23;20029;-93
2023/01/07 05:16:50;;;;;;;0.93;0.93;;;;;;;0.99;100.00;100607.38;6048245;23;20029;-93
2023/01/07 05:19:16;;;;;;;1.02;1.00;;;;;;;0.98;100.00;100609.31;6069939;23;20358;-92
2023/01/07 05:21:45;;;;;;;2.22;1.55;;;;;;;0.91;100.00;100593.56;6047973;23;20030;-92
2023/01/07 05:24:11;;;;;;;1.05;1.02;;;;;;;0.96;100.00;100608.09;6069701;23;20010;-94
2023/01/07 05:26:37;;;;;;;1.38;1.13;;;;;;;0.87;100.00;100598.16;6046716;23;20049;-92
2023/01/07 05:29:03;;;;;;;1.45;1.38;;;;;;;0.83;100.00;100610.97;6070453;23;20018;-92
2023/01/07 05:31:28;;;;;;;0.95;0.95;;;;;;;0.72;100.00;100603.69;6093478;23;20342;-92
2023/01/07 05:33:54;;;;;;;3.45;3.22;;;;;;;0.69;100.00;100610.63;6070003;23;20014;-92
2023/01/07 05:36:20;;;;;;;1.85;1.70;;;;;;;0.69;100.00;100616.09;6045379;23;20439;-92
2023/01/07 05:38:47;;;;;;;2.38;2.22;;;;;;;0.40;100.00;100589.31;6070691;23;20097;-93
2023/01/07 05:41:12;;;;;;;1.27;1.20;;;;;;;0.63;100.00;100606.63;6070438;23;20061;-93
2023/01/07 05:43:38;;;;;;;1.33;1.23;;;;;;;0.54;100.00;100595.09;6069522;23;20520;-93
2023/01/07 05:46:04;;;;;;;4.72;2.85;;;;;;;0.49;100.00;100600.06;6046290;23;20346;-93
2023/01/07 05:48:29;;;;;;;1.77;1.38;;;;;;;0.45;100.00;100594.50;6070760;23;20067;-93
2023/01/07 05:50:55;;;;;;;1.33;1.25;;;;;;;0.31;100.00;100558.69;6070394;23;20085;-93
2023/01/07 05:53:20;;;;;;;2.28;1.92;;;;;;;0.51;100.00;100608.66;6069641;23;20470;-93
2023/01/07 05:55:46;;;;;;;2.45;2.25;;;;;;;0.42;100.00;100611.59;6045905;23;20015;-92
2023/01/07 05:58:12;;;;;;;0.95;0.93;;;;;;;0.45;100.00;100606.19;6045927;23;20054;-92
2023/01/07 06:00:38;;;;;;;0.82;0.82;;;;;;;0.43;100.00;100608.50;6045783;23;20343;-93
2023/01/07 06:03:04;;;;;;;1.00;1.00;;;;;;;0.42;100.00;100608.84;6041954;23;20014;-93
2023/01/07 06:05:30;;;;;;;1.05;1.02;;;;;;;0.41;100.00;100610.78;6018742;23;20022;-93
2023/01/07 06:07:56;;;;;;;4.10;2.50;;;;;;;0.41;100.00;100604.53;6022405;23;20011;-93
2023/01/07 06:10:22;;;;;;;1.85;1.75;;;;;;;0.39;100.00;100606.84;6024256;23;20011;-93
2023/01/07 06:12:47;;;;;;;2.63;2.25;;;;;;;0.33;100.00;100613.69;6044947;23;20085;-93
2023/01/07 06:15:13;;;;;;;3.72;3.10;;;;;;;0.31;100.00;100618.75;5992084;23;20029;-93
2023/01/07 06:17:39;;;;;;;2.25;2.10;;;;;;;0.25;100.00;100607.28;6017371;23;20015;-92
2023/01/07 06:20:05;;;;;;;1.58;1.48;;;;;;;0.20;100.00;100595.88;5994660;23;20023;-93
2023/01/07 06:22:31;;;;;;;1.73;1.63;;;;;;;0.21;100.00;100605.63;5994571;23;20034;-93
2023/01/07 06:24:56;;;;;;;2.63;1.95;;;;;;;0.13;100.00;100582.03;6015359;23;20368;-92
2023/01/07 06:27:22;;;;;;;1.77;1.67;;;;;;;0.19;100.00;100602.47;6040476;23;20507;-92
2023/01/07 06:29:47;;;;;;;2.47;2.28;;;;;;;0.20;100.00;100598.59;5993888;23;20066;-93
2023/01/07 06:32:13;;;;;;;0.88;0.82;;;;;;;-0.05;100.00;100565.25;6017474;23;20355;-93
2023/01/07 06:34:38;;;;;;;4.30;2.22;;;;;;;0.17;100.00;100602.00;5993637;23;20346;-93
2023/01/07 06:37:04;;;;;;;1.52;1.42;;;;;;;0.12;100.00;100581.28;6039222;23;20014;-93
2023/01/07 06:39:29;;;;;;;1.10;1.10;;;;;;;0.26;100.00;100602.63;6016653;23;20014;-93
2023/01/07 06:41:55;;;;;;;3.03;2.70;;;;;;;-0.02;100.00;100578.97;5993223;23;20019;-92
2023/01/07 06:44:20;;;;;;;4.00;1.88;;;;;;;0.06;100.00;100588.13;5993519;23;20324;-93
2023/01/07 06:46:46;;;;;;;2.78;2.58;;;;;;;0.09;100.00;100614.69;6040421;23;20011;-92
2023/01/07 06:49:11;;;;;;;2.13;2.00;;;;;;;-0.05;100.00;100596.06;5994004;23;20021;-93
2023/01/07 06:51:37;;;;;;;2.63;2.42;;;;;;;0.04;100.00;100608.72;6017774;23;20014;-92
2023/01/07 06:54:02;;;;;;;1.17;1.10;;;;;;;-0.12;100.00;100598.59;6016615;23;20046;-93
2023/01/07 06:56:28;;;;;;;0.85;0.85;;;;;;;-0.01;100.00;100618.75;6016297;23;20506;-93
2023/01/07 06:58:53;;;;;;;1.50;1.40;;;;;;;0.02;100.00;100613.72;5993943;23;20010;-93
2023/01/07 07:01:19;;;;;;;3.90;1.90;;;;;;;0.04;100.00;100612.25;5993174;23;20015;-92
2023/01/07 07:03:44;;;;;;;2.15;2.05;;;;;;;0.06;100.00;100625.50;6035226;23;20495;-93
2023/01/07 07:06:10;;;;;;;4.10;3.70;;;;;;;-0.22;100.00;100588.22;6044772;23;20391;-92
2023/01/07 07:08:35;;;;;;;1.42;1.33;;;;;;;0.07;100.00;100616.19;6069886;23;20054;-92
2023/01/07 07:11:01;;;;;;;0.68;0.68;;;;;;;0.05;100.00;100615.75;6092111;23;20097;-92
2023/01/07 07:13:26;;;;;;;0.95;0.90;;;;;;;0.16;100.00;100625.00;6067134;23;20339;-93
2023/01/07 07:15:52;;;;;;;0.60;0.60;;;;;;;0.12;100.00;100615.94;6068786;23;20014;-92
2023/01/07 07:18:18;;;;;;;0.95;0.95;;;;;;;0.16;100.00;100625.00;6066587;23;20014;-93
2023/01/07 07:20:47;;;;;;;0.32;0.32;;;;;;;0.07;100.00;100627.91;6045958;23;20018;-92
2023/01/07 07:23:12;;;;;;;0.30;0.30;;;;;;;-0.20;100.00;100596.06;6041739;23;20022;-92
2023/01/07 07:25:38;;;;;;;2.83;2.63;;;;;;;-0.28;100.00;100597.03;6066653;23;20017;-93
2023/01/07 07:28:03;;;;;;;2.45;1.63;;;;;;;-0.11;100.00;100630.19;6092826;23;20018;-92
2023/01/07 07:30:29;;;;;;;0.90;0.90;;;;;;;-0.20;100.00;100613.19;6067057;23;20447;-92
2023/01/07 07:32:54;;;;;;;1.70;1.55;;;;;;;-0.17;100.00;100607.06;6067212;23;20483;-92
2023/01/07 07:35:20;;;;;;;0.03;0.03;;;;;;;-0.04;100.00;100622.16;6069285;23;20026;-92
2023/01/07 07:37:46;;;;;;;1.17;0.52;;;;;;;0.06;100.00;100625.50;6045123;23;20445;-92
2023/01/07 07:40:11;;;;;;;0.93;0.93;;;;;;;0.16;100.00;100635.91;6068570;23;20022;-92
2023/01/07 07:42:38;;;;;;;0.65;0.60;;;;;;;0.22;100.00;100639.94;6069676;23;20010;-93
2023/01/07 07:45:05;;;;;;;0.73;0.73;;;;;;;0.19;100.00;100632.47;6092391;23;20018;-93
2023/01/07 07:47:49;;;;;;;1.85;1.75;;;;;;;0.20;100.00;100625.88;6092528;23;20014;-93
2023/01/07 07:50:15;;;;;;;2.10;1.30;;;;;;;0.21;100.00;100625.50;6068612;23;20046;-93
2023/01/07 07:52:40;;;;;;;0.17;0.17;;;;;;;0.29;100.00;100623.75;6068298;23;20017;-93
2023/01/07 07:55:07;;;;;;;2.20;1.15;;;;;;;0.24;100.00;100621.31;6067727;23;20013;-93
2023/01/07 07:57:32;;;;;;;0.28;0.25;;;;;;;0.10;100.00;100619.00;6043812;23;20022;-92
2023/01/07 07:59:58;;;;;;;0.63;0.63;;;;;;;0.22;100.00;100618.91;6043720;23;20092;-93
2023/01/07 08:02:23;;;;;;;0.47;0.47;;;;;;;0.22;100.00;100607.22;6091893;23;20011;-93
2023/01/07 08:04:49;;;;;;;3.65;1.48;;;;;;;0.09;100.00;100581.16;6042139;23;20025;-92
2023/01/07 08:07:14;;;;;;;0.98;0.95;;;;;;;0.40;100.00;100620.16;6069852;23;20018;-94
2023/01/07 08:09:40;;;;;;;1.88;1.77;;;;;;;0.47;100.00;100616.78;6070163;23;20018;-93
2023/01/07 08:12:06;;;;;;;1.45;1.35;;;;;;;0.56;100.00;100608.41;6078005;23;20423;-93
2023/01/07 08:14:31;;;;;;;0.68;0.68;;;;;;;0.65;100.00;100604.31;6090829;23;20022;-92
2023/01/07 08:16:57;;;;;;;0.85;0.82;;;;;;;0.81;100.00;100607.78;6067091;23;20324;-92
2023/01/07 08:19:22;;;;;;;3.55;3.13;;;;;;;0.89;100.00;100609.50;6088204;23;20089;-93
2023/01/07 08:21:50;;;;;;;0.65;0.65;;;;;;;0.93;100.00;100594.00;6041547;23;20037;-93
2023/01/07 08:24:15;;;;;;;1.30;1.23;;;;;;;1.01;100.00;100594.16;6040869;23;20122;-92
2023/01/07 08:26:41;;;;;;;3.05;2.85;;;;;;;1.22;100.00;100600.81;6089886;23;20423;-93
2023/01/07 08:29:07;;;;;;;3.95;3.20;;;;;;;1.24;100.00;100597.75;6089255;23;20022;-93
2023/01/07 08:31:32;;;;;;;6.40;4.93;;;;;;;1.17;100.00;100592.16;6088900;23;20018;-92
2023/01/07 08:33:57;;;;;;;0.75;0.75;;;;;;;1.18;100.00;100588.25;6066447;23;20435;-92
2023/01/07 08:36:23;;;;;;;1.40;1.30;;;;;;;1.22;100.00;100600.03;6090331;23;20094;-93
2023/01/07 08:38:53;;;;;;;7.13;4.78;;;;;;;1.31;100.00;100592.41;6089725;23;20014;-92
2023/01/07 08:41:20;;;;;;;1.10;0.73;;;;;;;1.25;100.00;100577.47;6088982;23;20025;-92
2023/01/07 08:43:45;;;;;;;3.60;2.88;;;;;;;1.36;100.00;100581.97;6066595;23;20011;-91
2023/01/07 08:46:11;;;;;;;2.30;2.20;;;;;;;1.48;100.00;100570.09;6088730;23;20435;-93
2023/01/07 08:48:39;;;;;;;0.60;0.60;;;;;;;1.69;100.00;100589.63;6065738;23;20019;-92
2023/01/07 08:51:05;;;;;;;1.67;1.58;;;;;;;1.81;100.00;100583.19;6091182;23;20023;-93
2023/01/07 08:53:31;;;;;;;2.38;2.22;;;;;;;1.83;100.00;100587.13;6018219;23;20464;-93
2023/01/07 08:55:56;;;;;;;3.13;1.85;;;;;;;1.78;100.00;100562.81;6090326;23;20351;-93
2023/01/07 08:58:24;;;;;;;5.63;3.90;;;;;;;2.01;100.00;100581.16;6065008;23;20006;-92
2023/01/07 09:00:49;;;;;;;3.28;2.10;;;;;;;1.98;100.00;100565.50;6065425;23;20049;-93
2023/01/07 09:03:15;;;;;;;3.13;2.92;;;;;;;1.96;100.00;100563.09;6113287;23;20415;-93
2023/01/07 09:05:40;;;;;;;2.45;2.35;;;;;;;2.03;100.00;100582.38;6042105;23;20014;-94
2023/01/07 09:08:06;;;;;;;3.90;3.45;;;;;;;2.14;100.00;100577.09;6089429;23;20017;-93
2023/01/07 09:10:31;;;;;;;1.98;1.63;;;;;;;2.15;100.00;100568.50;6111321;23;20017;-94
2023/01/07 09:12:57;;;;;;;1.17;1.10;;;;;;;2.22;100.00;100567.81;6041316;23;20026;-93
2023/01/07 09:15:23;;;;;;;1.90;1.80;;;;;;;2.33;100.00;100563.28;6065071;23;20014;-93
2023/01/07 09:17:48;;;;;;;15.95;2.90;;;;;;;2.44;100.00;100566.19;6041823;23;20018;-93
2023/01/07 09:20:14;;;;;;;3.55;2.60;;;;;;;2.64;100.00;100576.66;6065061;23;20340;-94
2023/01/07 09:22:39;;;;;;;0.65;0.65;;;;;;;2.67;100.00;100567.69;6064998;23;20014;-94
2023/01/07 09:25:05;;;;;;;5.30;3.03;;;;;;;2.83;100.00;100572.22;6065764;23;20071;-93
2023/01/07 09:27:31;;;;;;;2.10;1.98;;;;;;;2.75;100.00;100555.66;6088442;23;20016;-92
2023/01/07 09:29:57;;;;;;;0.88;0.85;;;;;;;2.80;100.00;100557.28;6089009;23;20010;-94
2023/01/07 09:32:26;;;;;;;1.38;1.30;;;;;;;2.93;100.00;100568.81;6063546;23;20041;-93
2023/01/07 09:34:52;;;;;;;1.25;1.02;;;;;;;2.87;100.00;100556.59;6042666;23;20026;-93
2023/01/07 09:37:18;;;;;;;1.27;1.20;;;;;;;3.00;100.00;100566.16;6069388;23;20014;-93
2023/01/07 09:39:44;;;;;;;1.17;1.13;;;;;;;3.22;100.00;100563.31;6094329;23;20044;-94
2023/01/07 09:42:38;;;;;;;1.75;1.10;;;;;;;3.30;100.00;100572.38;6048118;23;20007;-93
2023/01/07 09:45:04;;;;;;;2.08;1.55;;;;;;;3.32;100.00;100564.56;6069930;23;20018;-95
2023/01/07 09:47:32;;;;;;;0.45;0.45;;;;;;;3.24;100.00;100569.19;6069551;23;20026;-93
2023/01/07 09:50:06;;;;;;;2.40;1.10;;;;;;;3.21;100.00;100549.94;6070898;23;20030;-94
2023/01/07 09:52:36;;;;;;;;;;;;;;;3.33;100.00;100555.19;6071575;23;20022;-96
2023/01/07 09:55:31;;;;;;;2.53;2.33;;;;;;;3.32;100.00;100547.34;6065444;23;20361;-92
2023/01/07 09:57:57;;;;;;;0.40;0.40;;;;;;;3.32;100.00;100541.88;6055584;23;20083;-93
2023/01/07 10:00:23;;;;;;;1.85;1.75;;;;;;;3.18;100.00;100556.19;6043202;23;20039;-92
2023/01/07 10:02:55;;;;;;;5.57;1.98;;;;;;;3.19;100.00;100555.81;6067636;23;20007;-92
2023/01/07 10:05:46;;;;;;;5.05;3.05;;;;;;;3.25;100.00;100535.13;6066963;23;20030;-95
2023/01/07 10:08:40;;;;;;;1.10;1.02;;;;;;;3.47;100.00;100530.66;5991101;23;20228;-94
2023/01/07 10:11:36;;;;;;;5.80;2.15;;;;;;;3.77;100.00;100533.25;6018914;23;20019;-94
2023/01/07 10:14:08;;;;;;;6.20;1.58;;;;;;;3.86;100.00;100530.22;6050037;23;20055;-95
2023/01/07 10:16:39;;;;;;;1.48;1.38;;;;;;;3.86;100.00;100508.25;6063508;23;20043;-93
2023/01/07 10:19:17;;;;;;;0.75;0.75;;;;;;;4.13;100.00;100523.34;6044496;23;20114;-94
2023/01/07 10:21:55;;;;;;;1.52;1.42;;;;;;;4.10;100.00;100513.13;6016048;23;20015;-93
2023/01/07 10:24:31;;;;;;;2.83;1.90;;;;;;;4.40;100.00;100516.50;6015812;23;20443;-94
2023/01/07 10:27:03;;;;;;;1.23;1.02;;;;;;;4.39;100.00;100512.16;5994063;23;20015;-94
2023/01/07 10:29:50;;;;;;;1.63;1.40;;;;;;;4.34;100.00;100507.03;6017495;23;20038;-94
2023/01/07 10:32:20;;;;;;;1.98;1.88;;;;;;;4.36;100.00;100501.16;6042484;23;20037;-94
2023/01/07 10:34:52;;;;;;;5.18;1.92;;;;;;;4.57;100.00;100499.28;5995332;23;20026;-94
2023/01/07 10:37:37;;;;;;;1.80;1.70;;;;;;;4.82;100.00;100493.13;6017379;23;20363;-95
2023/01/07 10:40:33;;;;;;;2.50;2.03;;;;;;;5.05;100.00;100496.34;5992883;23;20396;-94
2023/01/07 10:43:29;;;;;;;1.65;1.55;;;;;;;5.11;100.00;100492.81;5994573;23;20404;-94
2023/01/07 10:45:55;;;;;;;2.50;2.30;;;;;;;4.97;100.00;100492.00;6040948;23;20022;-94
2023/01/07 10:48:30;;;;;;;1.80;1.70;;;;;;;4.97;100.00;100490.06;6017549;23;20026;-94
2023/01/07 10:51:17;;;;;;;1.00;1.00;;;;;;;4.96;100.00;100487.69;6043270;23;20010;-94
2023/01/07 10:54:08;;;;;;;0.65;0.65;;;;;;;4.91;100.00;100479.81;6043132;23;20440;-93
2023/01/07 10:56:40;;;;;;;6.93;2.42;;;;;;;4.67;100.00;100476.59;6042612;23;20093;-93
2023/01/07 10:59:13;;;;;;;0.90;0.90;;;;;;;4.53;100.00;100476.50;6041828;23;20018;-95
2023/01/07 11:01:45;;;;;;;1.60;1.50;;;;;;;4.32;100.00;100454.44;5998092;23;20015;-92
2023/01/07 11:04:13;;;;;;;0.75;0.75;;;;;;;4.36;100.00;100465.44;6012571;23;20355;-91
2023/01/07 11:06:40;;;;;;;1.83;1.73;;;;;;;4.38;100.00;100466.63;6049324;23;20010;-93
2023/01/07 11:09:09;;;;;;;3.13;2.80;;;;;;;4.30;100.00;100450.50;6045592;23;20489;-93
2023/01/07 11:11:35;;;;;;;3.17;2.88;;;;;;;3.96;100.00;100452.66;6074990;23;20078;-93
2023/01/07 11:14:08;;;;;;;1.98;1.85;;;;;;;3.90;100.00;100459.66;6096893;23;20018;-94
2023/01/07 11:16:42;;;;;;;6.40;3.60;;;;;;;3.96;100.00;100458.16;6071602;23;20019;-91
2023/01/07 11:19:10;;;;;;;0.30;0.30;;;;;;;3.98;100.00;100450.31;6096237;23;20025;-94
2023/01/07 11:21:44;;;;;;;1.85;1.33;;;;;;;4.10;100.00;100445.28;6098229;23;20007;-94
2023/01/07 11:24:31;;;;;;;1.25;1.15;;;;;;;4.12;100.00;100439.44;6044384;23;20093;-93
2023/01/07 11:27:05;;;;;;;1.17;1.10;;;;;;;3.98;100.00;100440.13;6094038;23;20443;-94
2023/01/07 11:29:36;;;;;;;4.43;3.42;;;;;;;3.76;100.00;100441.94;6094030;23;20101;-92
2023/01/07 11:32:02;;;;;;;2.97;2.65;;;;;;;3.63;100.00;100423.44;6045586;23;20038;-94
2023/01/07 11:35:00;;;;;;;2.17;1.80;;;;;;;3.67;100.00;100436.00;6044384;23;20097;-93
2023/01/07 11:37:46;;;;;;;2.33;2.13;;;;;;;3.71;100.00;100428.59;6081433;23;20018;-92
2023/01/07 11:40:12;;;;;;;3.92;3.47;;;;;;;3.80;100.00;100428.25;6093042;23;20013;-92
2023/01/07 11:42:54;;;;;;;3.35;2.90;;;;;;;3.69;100.00;100422.69;6094857;23;20070;-92